sensor_id;sensor_type;location;lat;lon;timestamp;P1;durP1;ratioP1;P2;durP2;ratioP2
24084;SDS011;12268;52.110;5.548;2022-11-15T00:00:47;42.33;;;17.15;;
24084;SDS011;12268;52.110;5.548;2022-11-15T00:03:17;37.80;;;16.42;;
24084;SDS011;12268;52.110;5.548;2022-11-15T00:05:43;45.80;;;18.75;;
24084;SDS011;12268;52.110;5.548;2022-11-15T00:08:09;42.58;;;17.95;;
24084;SDS011;12268;52.110;5.548;2022-11-15T00:10:35;41.10;;;17.83;;
24084;SDS011;12268;52.110;5.548;2022-11-15T00:13:08;41.58;;;16.85;;
24084;SDS011;12268;52.110;5.548;2022-11-15T00:15:36;39.22;;;16.67;;
24084;SDS011;12268;52.110;5.548;2022-11-15T00:18:04;41.95;;;17.88;;
24084;SDS011;12268;52.110;5.548;2022-11-15T00:20:31;50.53;;;19.17;;
24084;SDS011;12268;52.110;5.548;2022-11-15T00:22:58;46.15;;;18.52;;
24084;SDS011;12268;52.110;5.548;2022-11-15T00:25:24;45.47;;;18.55;;
24084;SDS011;12268;52.110;5.548;2022-11-15T00:27:49;50.22;;;18.33;;
24084;SDS011;12268;52.110;5.548;2022-11-15T00:30:16;47.45;;;18.38;;
24084;SDS011;12268;52.110;5.548;2022-11-15T00:32:42;50.83;;;19.23;;
24084;SDS011;12268;52.110;5.548;2022-11-15T00:35:07;49.08;;;17.98;;
24084;SDS011;12268;52.110;5.548;2022-11-15T00:37:33;49.45;;;18.05;;
24084;SDS011;12268;52.110;5.548;2022-11-15T00:39:58;56.00;;;19.40;;
24084;SDS011;12268;52.110;5.548;2022-11-15T00:42:24;52.08;;;18.42;;
24084;SDS011;12268;52.110;5.548;2022-11-15T00:44:49;57.78;;;19.30;;
24084;SDS011;12268;52.110;5.548;2022-11-15T00:47:15;56.58;;;20.38;;
24084;SDS011;12268;52.110;5.548;2022-11-15T00:49:40;52.17;;;20.77;;
24084;SDS011;12268;52.110;5.548;2022-11-15T00:52:06;45.35;;;19.77;;
24084;SDS011;12268;52.110;5.548;2022-11-15T00:54:32;49.13;;;19.80;;
24084;SDS011;12268;52.110;5.548;2022-11-15T00:56:57;51.38;;;20.55;;
24084;SDS011;12268;52.110;5.548;2022-11-15T00:59:23;55.60;;;19.70;;
24084;SDS011;12268;52.110;5.548;2022-11-15T01:01:48;53.47;;;19.02;;
24084;SDS011;12268;52.110;5.548;2022-11-15T01:04:14;51.22;;;19.70;;
24084;SDS011;12268;52.110;5.548;2022-11-15T01:06:39;45.03;;;19.17;;
24084;SDS011;12268;52.110;5.548;2022-11-15T01:09:05;48.80;;;19.02;;
24084;SDS011;12268;52.110;5.548;2022-11-15T01:11:30;52.70;;;19.58;;
24084;SDS011;12268;52.110;5.548;2022-11-15T01:13:56;46.72;;;19.50;;
24084;SDS011;12268;52.110;5.548;2022-11-15T01:16:21;50.03;;;18.98;;
24084;SDS011;12268;52.110;5.548;2022-11-15T01:18:47;47.50;;;19.23;;
24084;SDS011;12268;52.110;5.548;2022-11-15T01:21:14;45.55;;;19.05;;
24084;SDS011;12268;52.110;5.548;2022-11-15T01:23:41;47.90;;;19.38;;
24084;SDS011;12268;52.110;5.548;2022-11-15T01:26:09;52.00;;;18.55;;
24084;SDS011;12268;52.110;5.548;2022-11-15T01:28:36;47.10;;;18.98;;
24084;SDS011;12268;52.110;5.548;2022-11-15T01:31:04;43.50;;;18.67;;
24084;SDS011;12268;52.110;5.548;2022-11-15T01:33:33;51.00;;;19.38;;
24084;SDS011;12268;52.110;5.548;2022-11-15T01:36:03;50.10;;;19.73;;
24084;SDS011;12268;52.110;5.548;2022-11-15T01:38:30;53.05;;;20.40;;
24084;SDS011;12268;52.110;5.548;2022-11-15T01:40:55;55.25;;;21.30;;
24084;SDS011;12268;52.110;5.548;2022-11-15T01:43:28;56.80;;;20.05;;
24084;SDS011;12268;52.110;5.548;2022-11-15T01:48:46;42.10;;;19.38;;
24084;SDS011;12268;52.110;5.548;2022-11-15T01:51:13;59.42;;;20.75;;
24084;SDS011;12268;52.110;5.548;2022-11-15T01:53:41;43.60;;;20.45;;
24084;SDS011;12268;52.110;5.548;2022-11-15T01:56:11;46.95;;;20.67;;
24084;SDS011;12268;52.110;5.548;2022-11-15T01:58:41;50.03;;;20.73;;
24084;SDS011;12268;52.110;5.548;2022-11-15T02:01:09;48.92;;;19.65;;
24084;SDS011;12268;52.110;5.548;2022-11-15T02:03:39;47.10;;;20.52;;
24084;SDS011;12268;52.110;5.548;2022-11-15T02:06:26;51.67;;;20.83;;
24084;SDS011;12268;52.110;5.548;2022-11-15T02:08:52;50.72;;;20.25;;
24084;SDS011;12268;52.110;5.548;2022-11-15T02:11:19;44.75;;;18.60;;
24084;SDS011;12268;52.110;5.548;2022-11-15T02:13:44;51.38;;;21.10;;
24084;SDS011;12268;52.110;5.548;2022-11-15T02:21:50;52.15;;;20.60;;
24084;SDS011;12268;52.110;5.548;2022-11-15T02:25:07;51.72;;;21.23;;
24084;SDS011;12268;52.110;5.548;2022-11-15T02:30:23;49.38;;;19.25;;
24084;SDS011;12268;52.110;5.548;2022-11-15T02:35:48;48.72;;;20.75;;
24084;SDS011;12268;52.110;5.548;2022-11-15T02:38:32;45.42;;;20.67;;
24084;SDS011;12268;52.110;5.548;2022-11-15T02:41:16;50.50;;;20.95;;
24084;SDS011;12268;52.110;5.548;2022-11-15T02:44:00;49.33;;;21.25;;
24084;SDS011;12268;52.110;5.548;2022-11-15T02:46:38;44.55;;;19.85;;
24084;SDS011;12268;52.110;5.548;2022-11-15T02:49:27;45.92;;;20.73;;
24084;SDS011;12268;52.110;5.548;2022-11-15T02:51:56;49.50;;;19.95;;
24084;SDS011;12268;52.110;5.548;2022-11-15T02:54:23;49.08;;;21.60;;
24084;SDS011;12268;52.110;5.548;2022-11-15T02:56:50;44.80;;;19.35;;
24084;SDS011;12268;52.110;5.548;2022-11-15T02:59:23;45.58;;;21.02;;
24084;SDS011;12268;52.110;5.548;2022-11-15T03:04:54;52.72;;;20.95;;
24084;SDS011;12268;52.110;5.548;2022-11-15T03:10:02;43.33;;;20.85;;
24084;SDS011;12268;52.110;5.548;2022-11-15T03:12:40;44.08;;;19.92;;
24084;SDS011;12268;52.110;5.548;2022-11-15T03:15:18;51.92;;;21.15;;
24084;SDS011;12268;52.110;5.548;2022-11-15T03:17:49;44.97;;;19.80;;
24084;SDS011;12268;52.110;5.548;2022-11-15T03:20:25;42.55;;;20.77;;
24084;SDS011;12268;52.110;5.548;2022-11-15T03:22:52;48.58;;;21.25;;
24084;SDS011;12268;52.110;5.548;2022-11-15T03:25:22;50.83;;;22.65;;
24084;SDS011;12268;52.110;5.548;2022-11-15T03:27:51;45.72;;;21.40;;
24084;SDS011;12268;52.110;5.548;2022-11-15T03:30:19;43.08;;;21.15;;
24084;SDS011;12268;52.110;5.548;2022-11-15T03:32:51;49.95;;;21.98;;
24084;SDS011;12268;52.110;5.548;2022-11-15T03:35:22;44.30;;;21.33;;
24084;SDS011;12268;52.110;5.548;2022-11-15T03:40:40;45.47;;;20.33;;
24084;SDS011;12268;52.110;5.548;2022-11-15T03:46:07;52.22;;;22.95;;
24084;SDS011;12268;52.110;5.548;2022-11-15T03:48:49;43.72;;;20.40;;
24084;SDS011;12268;52.110;5.548;2022-11-15T03:51:18;47.83;;;22.13;;
24084;SDS011;12268;52.110;5.548;2022-11-15T03:53:44;45.58;;;21.17;;
24084;SDS011;12268;52.110;5.548;2022-11-15T03:56:10;48.80;;;22.35;;
24084;SDS011;12268;52.110;5.548;2022-11-15T03:58:36;43.75;;;21.05;;
24084;SDS011;12268;52.110;5.548;2022-11-15T04:01:01;43.08;;;20.42;;
24084;SDS011;12268;52.110;5.548;2022-11-15T04:03:27;54.15;;;22.75;;
24084;SDS011;12268;52.110;5.548;2022-11-15T04:05:52;50.00;;;21.15;;
24084;SDS011;12268;52.110;5.548;2022-11-15T04:08:18;52.67;;;22.50;;
24084;SDS011;12268;52.110;5.548;2022-11-15T04:10:43;43.30;;;21.88;;
24084;SDS011;12268;52.110;5.548;2022-11-15T04:13:09;45.50;;;20.90;;
24084;SDS011;12268;52.110;5.548;2022-11-15T04:15:35;46.55;;;21.38;;
24084;SDS011;12268;52.110;5.548;2022-11-15T04:18:00;50.45;;;21.98;;
24084;SDS011;12268;52.110;5.548;2022-11-15T04:20:27;48.47;;;20.98;;
24084;SDS011;12268;52.110;5.548;2022-11-15T04:23:13;44.78;;;21.30;;
24084;SDS011;12268;52.110;5.548;2022-11-15T04:26:03;52.55;;;23.63;;
24084;SDS011;12268;52.110;5.548;2022-11-15T04:28:32;53.45;;;23.77;;
24084;SDS011;12268;52.110;5.548;2022-11-15T04:30:57;50.33;;;23.17;;
24084;SDS011;12268;52.110;5.548;2022-11-15T04:33:23;47.53;;;22.85;;
24084;SDS011;12268;52.110;5.548;2022-11-15T04:35:48;55.67;;;24.00;;
24084;SDS011;12268;52.110;5.548;2022-11-15T04:38:33;49.53;;;22.95;;
24084;SDS011;12268;52.110;5.548;2022-11-15T04:40:59;47.97;;;21.92;;
24084;SDS011;12268;52.110;5.548;2022-11-15T04:43:25;43.90;;;20.83;;
24084;SDS011;12268;52.110;5.548;2022-11-15T04:45:51;52.78;;;23.35;;
24084;SDS011;12268;52.110;5.548;2022-11-15T04:48:16;56.05;;;24.17;;
24084;SDS011;12268;52.110;5.548;2022-11-15T04:50:42;43.97;;;22.05;;
24084;SDS011;12268;52.110;5.548;2022-11-15T04:53:07;53.28;;;22.70;;
24084;SDS011;12268;52.110;5.548;2022-11-15T04:55:33;45.88;;;22.77;;
24084;SDS011;12268;52.110;5.548;2022-11-15T04:57:59;55.10;;;23.65;;
24084;SDS011;12268;52.110;5.548;2022-11-15T05:00:26;47.38;;;22.92;;
24084;SDS011;12268;52.110;5.548;2022-11-15T05:02:52;52.13;;;22.85;;
24084;SDS011;12268;52.110;5.548;2022-11-15T05:05:36;48.35;;;22.73;;
24084;SDS011;12268;52.110;5.548;2022-11-15T05:08:02;47.30;;;22.58;;
24084;SDS011;12268;52.110;5.548;2022-11-15T05:10:28;49.08;;;21.55;;
24084;SDS011;12268;52.110;5.548;2022-11-15T05:12:53;45.17;;;21.25;;
24084;SDS011;12268;52.110;5.548;2022-11-15T05:15:19;49.70;;;23.33;;
24084;SDS011;12268;52.110;5.548;2022-11-15T05:17:44;50.47;;;23.15;;
24084;SDS011;12268;52.110;5.548;2022-11-15T05:20:10;48.35;;;22.60;;
24084;SDS011;12268;52.110;5.548;2022-11-15T05:22:36;48.85;;;22.83;;
24084;SDS011;12268;52.110;5.548;2022-11-15T05:25:02;54.17;;;24.30;;
24084;SDS011;12268;52.110;5.548;2022-11-15T05:27:28;46.30;;;22.25;;
24084;SDS011;12268;52.110;5.548;2022-11-15T05:29:53;44.67;;;22.13;;
24084;SDS011;12268;52.110;5.548;2022-11-15T05:32:19;47.33;;;22.20;;
24084;SDS011;12268;52.110;5.548;2022-11-15T05:34:45;42.53;;;20.55;;
24084;SDS011;12268;52.110;5.548;2022-11-15T05:37:11;49.67;;;21.85;;
24084;SDS011;12268;52.110;5.548;2022-11-15T05:39:38;48.20;;;22.02;;
24084;SDS011;12268;52.110;5.548;2022-11-15T05:42:10;48.60;;;22.83;;
24084;SDS011;12268;52.110;5.548;2022-11-15T05:44:38;43.20;;;22.35;;
24084;SDS011;12268;52.110;5.548;2022-11-15T05:47:07;46.28;;;22.38;;
24084;SDS011;12268;52.110;5.548;2022-11-15T05:49:35;50.78;;;23.38;;
24084;SDS011;12268;52.110;5.548;2022-11-15T05:52:04;45.33;;;21.70;;
24084;SDS011;12268;52.110;5.548;2022-11-15T05:54:31;46.28;;;22.70;;
24084;SDS011;12268;52.110;5.548;2022-11-15T05:56:58;47.20;;;22.73;;
24084;SDS011;12268;52.110;5.548;2022-11-15T05:59:24;45.50;;;20.85;;
24084;SDS011;12268;52.110;5.548;2022-11-15T06:01:50;47.58;;;23.27;;
24084;SDS011;12268;52.110;5.548;2022-11-15T06:04:16;49.08;;;21.98;;
24084;SDS011;12268;52.110;5.548;2022-11-15T06:06:41;45.50;;;23.23;;
24084;SDS011;12268;52.110;5.548;2022-11-15T06:09:07;50.50;;;23.10;;
24084;SDS011;12268;52.110;5.548;2022-11-15T06:11:32;47.35;;;22.08;;
24084;SDS011;12268;52.110;5.548;2022-11-15T06:13:58;54.08;;;25.05;;
24084;SDS011;12268;52.110;5.548;2022-11-15T06:16:23;55.05;;;23.17;;
24084;SDS011;12268;52.110;5.548;2022-11-15T06:18:49;49.25;;;21.65;;
24084;SDS011;12268;52.110;5.548;2022-11-15T06:21:14;50.65;;;21.70;;
24084;SDS011;12268;52.110;5.548;2022-11-15T06:23:40;47.63;;;21.90;;
24084;SDS011;12268;52.110;5.548;2022-11-15T06:26:05;48.28;;;23.15;;
24084;SDS011;12268;52.110;5.548;2022-11-15T06:28:31;50.30;;;23.77;;
24084;SDS011;12268;52.110;5.548;2022-11-15T06:31:07;45.85;;;22.55;;
24084;SDS011;12268;52.110;5.548;2022-11-15T06:33:35;50.55;;;22.50;;
24084;SDS011;12268;52.110;5.548;2022-11-15T06:36:05;50.70;;;23.27;;
24084;SDS011;12268;52.110;5.548;2022-11-15T06:41:02;46.83;;;21.92;;
24084;SDS011;12268;52.110;5.548;2022-11-15T06:43:29;52.53;;;22.95;;
24084;SDS011;12268;52.110;5.548;2022-11-15T06:45:55;44.45;;;21.48;;
24084;SDS011;12268;52.110;5.548;2022-11-15T06:48:22;48.92;;;22.08;;
24084;SDS011;12268;52.110;5.548;2022-11-15T06:50:53;50.47;;;21.73;;
24084;SDS011;12268;52.110;5.548;2022-11-15T06:53:20;50.85;;;22.98;;
24084;SDS011;12268;52.110;5.548;2022-11-15T06:55:45;42.58;;;21.77;;
24084;SDS011;12268;52.110;5.548;2022-11-15T06:58:11;45.72;;;21.73;;
24084;SDS011;12268;52.110;5.548;2022-11-15T07:00:37;49.28;;;21.20;;
24084;SDS011;12268;52.110;5.548;2022-11-15T07:03:03;43.40;;;21.42;;
24084;SDS011;12268;52.110;5.548;2022-11-15T07:05:28;43.30;;;21.73;;
24084;SDS011;12268;52.110;5.548;2022-11-15T07:07:55;43.33;;;20.98;;
24084;SDS011;12268;52.110;5.548;2022-11-15T07:10:22;42.05;;;20.63;;
24084;SDS011;12268;52.110;5.548;2022-11-15T07:12:49;43.13;;;21.08;;
24084;SDS011;12268;52.110;5.548;2022-11-15T07:15:16;44.90;;;21.33;;
24084;SDS011;12268;52.110;5.548;2022-11-15T07:17:42;42.15;;;19.95;;
24084;SDS011;12268;52.110;5.548;2022-11-15T07:20:07;46.47;;;20.90;;
24084;SDS011;12268;52.110;5.548;2022-11-15T07:22:33;40.83;;;20.90;;
24084;SDS011;12268;52.110;5.548;2022-11-15T07:24:59;40.83;;;19.88;;
24084;SDS011;12268;52.110;5.548;2022-11-15T07:27:24;35.78;;;19.50;;
24084;SDS011;12268;52.110;5.548;2022-11-15T07:29:50;42.13;;;19.80;;
24084;SDS011;12268;52.110;5.548;2022-11-15T07:32:15;40.50;;;20.27;;
24084;SDS011;12268;52.110;5.548;2022-11-15T07:34:41;38.20;;;20.50;;
24084;SDS011;12268;52.110;5.548;2022-11-15T07:37:07;43.20;;;19.55;;
24084;SDS011;12268;52.110;5.548;2022-11-15T07:39:32;38.30;;;20.30;;
24084;SDS011;12268;52.110;5.548;2022-11-15T07:41:58;39.47;;;19.58;;
24084;SDS011;12268;52.110;5.548;2022-11-15T07:44:43;41.83;;;21.10;;
24084;SDS011;12268;52.110;5.548;2022-11-15T07:47:08;41.35;;;21.50;;
24084;SDS011;12268;52.110;5.548;2022-11-15T07:49:34;41.80;;;20.20;;
24084;SDS011;12268;52.110;5.548;2022-11-15T07:51:59;38.10;;;19.35;;
24084;SDS011;12268;52.110;5.548;2022-11-15T07:54:25;40.03;;;20.02;;
24084;SDS011;12268;52.110;5.548;2022-11-15T07:56:50;36.60;;;19.20;;
24084;SDS011;12268;52.110;5.548;2022-11-15T07:59:16;35.70;;;18.08;;
24084;SDS011;12268;52.110;5.548;2022-11-15T08:01:41;35.30;;;18.25;;
24084;SDS011;12268;52.110;5.548;2022-11-15T08:04:07;34.00;;;18.75;;
24084;SDS011;12268;52.110;5.548;2022-11-15T08:06:34;35.00;;;19.02;;
24084;SDS011;12268;52.110;5.548;2022-11-15T08:09:00;35.05;;;17.80;;
24084;SDS011;12268;52.110;5.548;2022-11-15T08:11:25;35.42;;;16.83;;
24084;SDS011;12268;52.110;5.548;2022-11-15T08:13:51;34.10;;;17.77;;
24084;SDS011;12268;52.110;5.548;2022-11-15T08:16:17;36.38;;;17.13;;
24084;SDS011;12268;52.110;5.548;2022-11-15T08:18:42;32.70;;;17.10;;
24084;SDS011;12268;52.110;5.548;2022-11-15T08:21:08;37.15;;;17.10;;
24084;SDS011;12268;52.110;5.548;2022-11-15T08:23:34;31.92;;;17.17;;
24084;SDS011;12268;52.110;5.548;2022-11-15T08:26:00;32.53;;;16.77;;
24084;SDS011;12268;52.110;5.548;2022-11-15T08:28:28;36.25;;;16.88;;
24084;SDS011;12268;52.110;5.548;2022-11-15T08:30:54;34.03;;;16.58;;
24084;SDS011;12268;52.110;5.548;2022-11-15T08:33:19;31.75;;;16.95;;
24084;SDS011;12268;52.110;5.548;2022-11-15T08:35:45;28.50;;;14.90;;
24084;SDS011;12268;52.110;5.548;2022-11-15T08:38:11;36.03;;;16.75;;
24084;SDS011;12268;52.110;5.548;2022-11-15T08:40:36;30.58;;;15.88;;
24084;SDS011;12268;52.110;5.548;2022-11-15T08:43:02;26.38;;;15.43;;
24084;SDS011;12268;52.110;5.548;2022-11-15T08:45:28;27.63;;;14.68;;
24084;SDS011;12268;52.110;5.548;2022-11-15T08:47:55;28.20;;;14.35;;
24084;SDS011;12268;52.110;5.548;2022-11-15T08:50:21;26.40;;;13.88;;
24084;SDS011;12268;52.110;5.548;2022-11-15T08:52:47;23.95;;;13.73;;
24084;SDS011;12268;52.110;5.548;2022-11-15T08:55:15;23.60;;;14.13;;
24084;SDS011;12268;52.110;5.548;2022-11-15T08:57:41;25.15;;;13.77;;
24084;SDS011;12268;52.110;5.548;2022-11-15T09:00:07;27.52;;;13.52;;
24084;SDS011;12268;52.110;5.548;2022-11-15T09:12:56;21.45;;;11.40;;
24084;SDS011;12268;52.110;5.548;2022-11-15T09:15:22;20.27;;;11.93;;
24084;SDS011;12268;52.110;5.548;2022-11-15T09:17:47;23.48;;;11.10;;
24084;SDS011;12268;52.110;5.548;2022-11-15T09:20:13;20.38;;;10.93;;
24084;SDS011;12268;52.110;5.548;2022-11-15T09:22:38;21.27;;;10.73;;
24084;SDS011;12268;52.110;5.548;2022-11-15T09:25:04;17.77;;;10.50;;
24084;SDS011;12268;52.110;5.548;2022-11-15T09:27:30;24.10;;;10.90;;
24084;SDS011;12268;52.110;5.548;2022-11-15T09:29:56;21.40;;;11.15;;
24084;SDS011;12268;52.110;5.548;2022-11-15T09:32:21;18.60;;;10.75;;
24084;SDS011;12268;52.110;5.548;2022-11-15T09:34:48;18.08;;;10.73;;
24084;SDS011;12268;52.110;5.548;2022-11-15T09:37:14;17.98;;;10.82;;
24084;SDS011;12268;52.110;5.548;2022-11-15T09:39:40;22.77;;;12.07;;
24084;SDS011;12268;52.110;5.548;2022-11-15T09:47:37;20.98;;;11.05;;
24084;SDS011;12268;52.110;5.548;2022-11-15T09:50:28;22.80;;;10.57;;
24084;SDS011;12268;52.110;5.548;2022-11-15T09:53:03;15.60;;;10.95;;
24084;SDS011;12268;52.110;5.548;2022-11-15T09:55:34;17.70;;;10.60;;
24084;SDS011;12268;52.110;5.548;2022-11-15T10:01:32;16.05;;;10.25;;
24084;SDS011;12268;52.110;5.548;2022-11-15T10:04:09;15.85;;;10.23;;
24084;SDS011;12268;52.110;5.548;2022-11-15T10:06:36;14.18;;;8.55;;
24084;SDS011;12268;52.110;5.548;2022-11-15T10:09:09;18.50;;;9.63;;
24084;SDS011;12268;52.110;5.548;2022-11-15T10:11:39;15.38;;;8.38;;
24084;SDS011;12268;52.110;5.548;2022-11-15T10:14:10;12.93;;;8.15;;
24084;SDS011;12268;52.110;5.548;2022-11-15T10:22:23;10.82;;;7.00;;
24084;SDS011;12268;52.110;5.548;2022-11-15T10:24:49;11.30;;;7.50;;
24084;SDS011;12268;52.110;5.548;2022-11-15T10:27:17;8.93;;;6.10;;
24084;SDS011;12268;52.110;5.548;2022-11-15T10:29:47;8.90;;;5.63;;
24084;SDS011;12268;52.110;5.548;2022-11-15T10:32:15;8.75;;;5.22;;
24084;SDS011;12268;52.110;5.548;2022-11-15T10:34:42;9.50;;;4.93;;
24084;SDS011;12268;52.110;5.548;2022-11-15T10:37:08;6.28;;;4.18;;
24084;SDS011;12268;52.110;5.548;2022-11-15T10:39:33;7.57;;;4.30;;
24084;SDS011;12268;52.110;5.548;2022-11-15T10:42:17;7.25;;;4.18;;
24084;SDS011;12268;52.110;5.548;2022-11-15T10:44:50;7.18;;;4.07;;
24084;SDS011;12268;52.110;5.548;2022-11-15T10:49:55;4.78;;;3.13;;
24084;SDS011;12268;52.110;5.548;2022-11-15T10:52:22;6.22;;;2.90;;
24084;SDS011;12268;52.110;5.548;2022-11-15T10:57:55;5.82;;;3.33;;
24084;SDS011;12268;52.110;5.548;2022-11-15T11:00:29;4.90;;;3.03;;
24084;SDS011;12268;52.110;5.548;2022-11-15T11:03:01;6.25;;;3.22;;
24084;SDS011;12268;52.110;5.548;2022-11-15T11:05:30;4.93;;;3.33;;
24084;SDS011;12268;52.110;5.548;2022-11-15T11:08:16;7.63;;;3.08;;
24084;SDS011;12268;52.110;5.548;2022-11-15T11:10:53;6.05;;;2.97;;
24084;SDS011;12268;52.110;5.548;2022-11-15T11:13:24;4.63;;;2.80;;
24084;SDS011;12268;52.110;5.548;2022-11-15T11:21:09;7.55;;;2.80;;
24084;SDS011;12268;52.110;5.548;2022-11-15T11:27:09;4.70;;;2.22;;
24084;SDS011;12268;52.110;5.548;2022-11-15T11:37:17;4.97;;;2.65;;
24084;SDS011;12268;52.110;5.548;2022-11-15T11:40:05;6.07;;;3.00;;
24084;SDS011;12268;52.110;5.548;2022-11-15T11:42:56;3.85;;;2.50;;
24084;SDS011;12268;52.110;5.548;2022-11-15T11:48:22;6.20;;;2.90;;
24084;SDS011;12268;52.110;5.548;2022-11-15T11:50:48;8.10;;;2.78;;
24084;SDS011;12268;52.110;5.548;2022-11-15T11:53:15;5.25;;;2.78;;
24084;SDS011;12268;52.110;5.548;2022-11-15T11:56:02;5.43;;;2.60;;
24084;SDS011;12268;52.110;5.548;2022-11-15T11:58:43;5.10;;;2.92;;
24084;SDS011;12268;52.110;5.548;2022-11-15T12:01:12;5.68;;;2.63;;
24084;SDS011;12268;52.110;5.548;2022-11-15T12:04:32;4.75;;;2.50;;
24084;SDS011;12268;52.110;5.548;2022-11-15T12:06:53;5.85;;;2.47;;
24084;SDS011;12268;52.110;5.548;2022-11-15T12:09:36;6.80;;;2.75;;
24084;SDS011;12268;52.110;5.548;2022-11-15T12:12:18;6.05;;;2.17;;
24084;SDS011;12268;52.110;5.548;2022-11-15T12:17:26;5.45;;;2.20;;
24084;SDS011;12268;52.110;5.548;2022-11-15T12:19:57;5.63;;;2.10;;
24084;SDS011;12268;52.110;5.548;2022-11-15T12:25:21;3.97;;;2.10;;
24084;SDS011;12268;52.110;5.548;2022-11-15T12:28:19;5.93;;;1.98;;
24084;SDS011;12268;52.110;5.548;2022-11-15T12:30:51;6.05;;;2.30;;
24084;SDS011;12268;52.110;5.548;2022-11-15T12:33:34;6.07;;;2.15;;
24084;SDS011;12268;52.110;5.548;2022-11-15T12:38:57;7.68;;;2.40;;
24084;SDS011;12268;52.110;5.548;2022-11-15T12:41:32;4.47;;;2.20;;
24084;SDS011;12268;52.110;5.548;2022-11-15T12:43:59;6.90;;;2.33;;
24084;SDS011;12268;52.110;5.548;2022-11-15T13:04:46;6.00;;;1.98;;
24084;SDS011;12268;52.110;5.548;2022-11-15T13:09:59;6.65;;;2.13;;
24084;SDS011;12268;52.110;5.548;2022-11-15T13:14:51;6.68;;;2.47;;
24084;SDS011;12268;52.110;5.548;2022-11-15T13:19:43;6.57;;;2.25;;
24084;SDS011;12268;52.110;5.548;2022-11-15T13:22:12;3.35;;;2.22;;
24084;SDS011;12268;52.110;5.548;2022-11-15T13:24:56;8.18;;;2.42;;
24084;SDS011;12268;52.110;5.548;2022-11-15T13:27:23;4.88;;;2.38;;
24084;SDS011;12268;52.110;5.548;2022-11-15T13:29:50;6.70;;;2.20;;
24084;SDS011;12268;52.110;5.548;2022-11-15T13:32:15;6.03;;;2.10;;
24084;SDS011;12268;52.110;5.548;2022-11-15T13:34:48;4.40;;;1.98;;
24084;SDS011;12268;52.110;5.548;2022-11-15T13:39:46;5.80;;;1.80;;
24084;SDS011;12268;52.110;5.548;2022-11-15T13:42:16;7.30;;;1.92;;
24084;SDS011;12268;52.110;5.548;2022-11-15T13:44:56;5.68;;;1.77;;
24084;SDS011;12268;52.110;5.548;2022-11-15T13:47:28;7.60;;;1.73;;
24084;SDS011;12268;52.110;5.548;2022-11-15T13:49:56;4.00;;;1.60;;
24084;SDS011;12268;52.110;5.548;2022-11-15T13:52:22;4.53;;;2.05;;
24084;SDS011;12268;52.110;5.548;2022-11-15T13:55:00;3.92;;;1.73;;
24084;SDS011;12268;52.110;5.548;2022-11-15T14:03:22;4.20;;;1.70;;
24084;SDS011;12268;52.110;5.548;2022-11-15T14:08:32;6.05;;;1.90;;
24084;SDS011;12268;52.110;5.548;2022-11-15T14:11:18;4.05;;;1.80;;
24084;SDS011;12268;52.110;5.548;2022-11-15T14:16:33;2.35;;;1.50;;
24084;SDS011;12268;52.110;5.548;2022-11-15T14:19:00;4.70;;;1.80;;
24084;SDS011;12268;52.110;5.548;2022-11-15T14:21:27;6.35;;;1.58;;
24084;SDS011;12268;52.110;5.548;2022-11-15T14:23:52;3.40;;;1.67;;
24084;SDS011;12268;52.110;5.548;2022-11-15T14:26:38;5.85;;;1.77;;
24084;SDS011;12268;52.110;5.548;2022-11-15T14:31:51;6.93;;;1.70;;
24084;SDS011;12268;52.110;5.548;2022-11-15T14:34:37;2.33;;;1.60;;
24084;SDS011;12268;52.110;5.548;2022-11-15T14:37:03;8.23;;;1.80;;
24084;SDS011;12268;52.110;5.548;2022-11-15T14:39:28;7.28;;;1.58;;
24084;SDS011;12268;52.110;5.548;2022-11-15T14:41:54;5.38;;;1.60;;
24084;SDS011;12268;52.110;5.548;2022-11-15T14:44:19;2.72;;;1.48;;
24084;SDS011;12268;52.110;5.548;2022-11-15T14:46:46;3.08;;;1.80;;
24084;SDS011;12268;52.110;5.548;2022-11-15T14:49:13;6.30;;;1.88;;
24084;SDS011;12268;52.110;5.548;2022-11-15T14:51:40;2.05;;;1.52;;
24084;SDS011;12268;52.110;5.548;2022-11-15T14:54:08;3.13;;;1.42;;
24084;SDS011;12268;52.110;5.548;2022-11-15T14:56:36;4.78;;;1.92;;
24084;SDS011;12268;52.110;5.548;2022-11-15T14:59:02;5.32;;;1.88;;
24084;SDS011;12268;52.110;5.548;2022-11-15T15:01:27;4.72;;;2.10;;
24084;SDS011;12268;52.110;5.548;2022-11-15T15:03:53;4.88;;;2.08;;
24084;SDS011;12268;52.110;5.548;2022-11-15T15:06:21;2.72;;;1.67;;
24084;SDS011;12268;52.110;5.548;2022-11-15T15:08:47;3.97;;;2.10;;
24084;SDS011;12268;52.110;5.548;2022-11-15T15:11:22;4.20;;;1.70;;
24084;SDS011;12268;52.110;5.548;2022-11-15T15:13:50;5.80;;;1.70;;
24084;SDS011;12268;52.110;5.548;2022-11-15T15:16:17;3.50;;;1.58;;
24084;SDS011;12268;52.110;5.548;2022-11-15T15:18:43;5.03;;;2.13;;
24084;SDS011;12268;52.110;5.548;2022-11-15T15:21:22;4.43;;;1.70;;
24084;SDS011;12268;52.110;5.548;2022-11-15T15:23:49;5.57;;;1.77;;
24084;SDS011;12268;52.110;5.548;2022-11-15T15:26:16;4.57;;;1.77;;
24084;SDS011;12268;52.110;5.548;2022-11-15T15:28:41;3.88;;;1.63;;
24084;SDS011;12268;52.110;5.548;2022-11-15T15:31:08;5.45;;;2.00;;
24084;SDS011;12268;52.110;5.548;2022-11-15T15:33:34;5.78;;;2.17;;
24084;SDS011;12268;52.110;5.548;2022-11-15T15:36:00;3.60;;;1.92;;
24084;SDS011;12268;52.110;5.548;2022-11-15T15:38:25;6.00;;;2.15;;
24084;SDS011;12268;52.110;5.548;2022-11-15T15:40:51;4.05;;;1.83;;
24084;SDS011;12268;52.110;5.548;2022-11-15T15:43:16;7.13;;;1.98;;
24084;SDS011;12268;52.110;5.548;2022-11-15T15:45:42;7.00;;;2.80;;
24084;SDS011;12268;52.110;5.548;2022-11-15T15:48:10;3.70;;;1.58;;
24084;SDS011;12268;52.110;5.548;2022-11-15T15:50:37;3.83;;;1.75;;
24084;SDS011;12268;52.110;5.548;2022-11-15T15:53:03;3.65;;;2.05;;
24084;SDS011;12268;52.110;5.548;2022-11-15T15:55:29;5.63;;;2.38;;
24084;SDS011;12268;52.110;5.548;2022-11-15T15:57:55;4.45;;;2.05;;
24084;SDS011;12268;52.110;5.548;2022-11-15T16:00:21;5.53;;;2.00;;
24084;SDS011;12268;52.110;5.548;2022-11-15T16:02:49;2.33;;;1.75;;
24084;SDS011;12268;52.110;5.548;2022-11-15T16:05:15;5.00;;;1.90;;
24084;SDS011;12268;52.110;5.548;2022-11-15T16:07:42;4.40;;;1.80;;
24084;SDS011;12268;52.110;5.548;2022-11-15T16:10:21;5.07;;;1.83;;
24084;SDS011;12268;52.110;5.548;2022-11-15T16:15:15;6.32;;;2.40;;
24084;SDS011;12268;52.110;5.548;2022-11-15T16:17:51;5.50;;;1.83;;
24084;SDS011;12268;52.110;5.548;2022-11-15T16:20:38;2.33;;;1.50;;
24084;SDS011;12268;52.110;5.548;2022-11-15T16:23:13;5.28;;;2.00;;
24084;SDS011;12268;52.110;5.548;2022-11-15T16:28:12;5.18;;;1.50;;
24084;SDS011;12268;52.110;5.548;2022-11-15T16:30:47;4.43;;;2.15;;
24084;SDS011;12268;52.110;5.548;2022-11-15T16:33:13;8.07;;;2.20;;
24084;SDS011;12268;52.110;5.548;2022-11-15T16:35:39;3.55;;;1.80;;
24084;SDS011;12268;52.110;5.548;2022-11-15T16:38:05;4.85;;;1.80;;
24084;SDS011;12268;52.110;5.548;2022-11-15T16:40:32;8.48;;;2.65;;
24084;SDS011;12268;52.110;5.548;2022-11-15T16:42:59;7.95;;;2.17;;
24084;SDS011;12268;52.110;5.548;2022-11-15T16:45:26;6.78;;;2.20;;
24084;SDS011;12268;52.110;5.548;2022-11-15T16:47:53;4.07;;;2.00;;
24084;SDS011;12268;52.110;5.548;2022-11-15T16:52:53;5.90;;;1.90;;
24084;SDS011;12268;52.110;5.548;2022-11-15T16:55:20;5.80;;;2.00;;
24084;SDS011;12268;52.110;5.548;2022-11-15T16:57:48;5.97;;;2.42;;